sensor_id;sensor_type;location;lat;lon;timestamp;pressure;altitude;pressure_sealevel;temperature;humidity
23953;BME280;12163;49.316;6.092;2023-02-16T00:01:07;100489.78;;;2.74;80.08
23953;BME280;12163;49.316;6.092;2023-02-16T00:03:40;100492.44;;;2.74;80.14
23953;BME280;12163;49.316;6.092;2023-02-16T00:06:06;100489.59;;;2.75;80.20
23953;BME280;12163;49.316;6.092;2023-02-16T00:08:36;100500.44;;;2.74;80.43
23953;BME280;12163;49.316;6.092;2023-02-16T00:11:02;100502.75;;;2.70;80.07
23953;BME280;12163;49.316;6.092;2023-02-16T00:13:48;100508.28;;;2.62;80.26
23953;BME280;12163;49.316;6.092;2023-02-16T00:16:20;100500.72;;;2.59;80.36
23953;BME280;12163;49.316;6.092;2023-02-16T00:18:48;100489.25;;;2.59;80.26
23953;BME280;12163;49.316;6.092;2023-02-16T00:21:16;100494.19;;;2.55;80.59
23953;BME280;12163;49.316;6.092;2023-02-16T00:23:44;100500.34;;;2.56;80.51
23953;BME280;12163;49.316;6.092;2023-02-16T00:26:22;100491.94;;;2.52;80.53
23953;BME280;12163;49.316;6.092;2023-02-16T00:28:55;100487.22;;;2.54;80.55
23953;BME280;12163;49.316;6.092;2023-02-16T00:31:25;100488.00;;;2.55;80.67
23953;BME280;12163;49.316;6.092;2023-02-16T00:33:53;100484.56;;;2.54;80.62
23953;BME280;12163;49.316;6.092;2023-02-16T00:36:20;100496.22;;;2.53;80.69
23953;BME280;12163;49.316;6.092;2023-02-16T00:38:47;100488.44;;;2.52;80.61
23953;BME280;12163;49.316;6.092;2023-02-16T00:41:19;100479.03;;;2.49;80.80
23953;BME280;12163;49.316;6.092;2023-02-16T00:44:41;100474.53;;;2.43;80.65
23953;BME280;12163;49.316;6.092;2023-02-16T00:47:24;100475.56;;;2.42;80.85
23953;BME280;12163;49.316;6.092;2023-02-16T00:49:53;100478.22;;;2.42;80.89
23953;BME280;12163;49.316;6.092;2023-02-16T00:52:29;100476.81;;;2.40;81.07
23953;BME280;12163;49.316;6.092;2023-02-16T00:54:57;100470.06;;;2.37;80.87
23953;BME280;12163;49.316;6.092;2023-02-16T00:57:25;100472.53;;;2.32;80.82
23953;BME280;12163;49.316;6.092;2023-02-16T01:00:03;100467.63;;;2.29;80.89
23953;BME280;12163;49.316;6.092;2023-02-16T01:02:31;100469.69;;;2.27;80.83
23953;BME280;12163;49.316;6.092;2023-02-16T01:04:58;100466.41;;;2.25;80.92
23953;BME280;12163;49.316;6.092;2023-02-16T01:07:24;100469.50;;;2.22;80.80
23953;BME280;12163;49.316;6.092;2023-02-16T01:10:10;100470.94;;;2.18;80.84
23953;BME280;12163;49.316;6.092;2023-02-16T01:12:56;100467.66;;;2.16;81.10
23953;BME280;12163;49.316;6.092;2023-02-16T01:15:24;100466.03;;;2.15;81.17
23953;BME280;12163;49.316;6.092;2023-02-16T01:17:51;100458.88;;;2.16;80.98
23953;BME280;12163;49.316;6.092;2023-02-16T01:20:20;100462.34;;;2.16;81.12
23953;BME280;12163;49.316;6.092;2023-02-16T01:22:47;100478.72;;;2.20;80.97
23953;BME280;12163;49.316;6.092;2023-02-16T01:25:14;100480.97;;;2.16;80.98
23953;BME280;12163;49.316;6.092;2023-02-16T01:27:41;100475.47;;;2.11;81.17
23953;BME280;12163;49.316;6.092;2023-02-16T01:30:14;100477.09;;;2.06;80.98
23953;BME280;12163;49.316;6.092;2023-02-16T01:32:41;100473.63;;;2.05;81.41
23953;BME280;12163;49.316;6.092;2023-02-16T01:35:09;100476.31;;;2.05;81.13
23953;BME280;12163;49.316;6.092;2023-02-16T01:37:35;100472.81;;;2.05;81.67
23953;BME280;12163;49.316;6.092;2023-02-16T01:40:02;100475.47;;;2.05;81.27
23953;BME280;12163;49.316;6.092;2023-02-16T01:42:37;100462.81;;;2.00;81.30
23953;BME280;12163;49.316;6.092;2023-02-16T01:45:11;100459.13;;;2.01;81.26
23953;BME280;12163;49.316;6.092;2023-02-16T01:50:13;100448.84;;;1.98;81.25
23953;BME280;12163;49.316;6.092;2023-02-16T01:53:09;100451.75;;;1.97;81.38
23953;BME280;12163;49.316;6.092;2023-02-16T01:55:43;100444.38;;;1.92;81.40
23953;BME280;12163;49.316;6.092;2023-02-16T02:01:37;100448.91;;;1.85;81.24
23953;BME280;12163;49.316;6.092;2023-02-16T02:04:16;100454.41;;;1.84;81.25
23953;BME280;12163;49.316;6.092;2023-02-16T02:07:02;100453.00;;;1.81;80.87
23953;BME280;12163;49.316;6.092;2023-02-16T02:09:51;100446.44;;;1.77;81.23
23953;BME280;12163;49.316;6.092;2023-02-16T02:12:33;100450.13;;;1.76;81.59
23953;BME280;12163;49.316;6.092;2023-02-16T02:15:02;100444.59;;;1.78;81.61
23953;BME280;12163;49.316;6.092;2023-02-16T02:17:29;100437.47;;;1.78;81.71
23953;BME280;12163;49.316;6.092;2023-02-16T02:20:19;100451.75;;;1.77;81.29
23953;BME280;12163;49.316;6.092;2023-02-16T02:31:52;100450.16;;;1.70;81.64
23953;BME280;12163;49.316;6.092;2023-02-16T02:40:14;100442.16;;;1.63;81.60
23953;BME280;12163;49.316;6.092;2023-02-16T02:43:03;100444.84;;;1.63;81.84
23953;BME280;12163;49.316;6.092;2023-02-16T02:46:00;100435.81;;;1.58;81.65
23953;BME280;12163;49.316;6.092;2023-02-16T02:48:30;100433.78;;;1.60;81.75
23953;BME280;12163;49.316;6.092;2023-02-16T02:51:02;100434.00;;;1.59;81.73
23953;BME280;12163;49.316;6.092;2023-02-16T02:54:07;100432.38;;;1.58;81.90
23953;BME280;12163;49.316;6.092;2023-02-16T02:59:46;100426.00;;;1.59;81.92
23953;BME280;12163;49.316;6.092;2023-02-16T03:02:34;100420.69;;;1.59;81.93
23953;BME280;12163;49.316;6.092;2023-02-16T03:05:04;100413.75;;;1.58;81.67
23953;BME280;12163;49.316;6.092;2023-02-16T03:07:35;100414.78;;;1.57;82.14
23953;BME280;12163;49.316;6.092;2023-02-16T03:10:18;100419.44;;;1.55;82.07
23953;BME280;12163;49.316;6.092;2023-02-16T03:13:09;100410.06;;;1.52;81.91
23953;BME280;12163;49.316;6.092;2023-02-16T03:15:38;100413.31;;;1.48;81.90
23953;BME280;12163;49.316;6.092;2023-02-16T03:18:07;100407.41;;;1.46;81.91
23953;BME280;12163;49.316;6.092;2023-02-16T03:20:54;100406.78;;;1.44;81.66
23953;BME280;12163;49.316;6.092;2023-02-16T03:23:40;100419.47;;;1.42;81.93
23953;BME280;12163;49.316;6.092;2023-02-16T03:26:28;100412.94;;;1.38;81.96
23953;BME280;12163;49.316;6.092;2023-02-16T03:29:14;100416.38;;;1.32;81.59
23953;BME280;12163;49.316;6.092;2023-02-16T03:31:49;100415.59;;;1.31;81.56
23953;BME280;12163;49.316;6.092;2023-02-16T03:34:17;100422.72;;;1.31;81.95
23953;BME280;12163;49.316;6.092;2023-02-16T03:36:47;100420.28;;;1.29;82.01
23953;BME280;12163;49.316;6.092;2023-02-16T03:39:15;100424.78;;;1.29;81.81
23953;BME280;12163;49.316;6.092;2023-02-16T03:41:45;100426.41;;;1.30;82.07
23953;BME280;12163;49.316;6.092;2023-02-16T03:44:13;100410.47;;;1.30;82.16
23953;BME280;12163;49.316;6.092;2023-02-16T03:46:40;100413.72;;;1.32;82.05
23953;BME280;12163;49.316;6.092;2023-02-16T03:49:06;100419.28;;;1.30;82.38
23953;BME280;12163;49.316;6.092;2023-02-16T03:51:33;100412.09;;;1.31;82.18
23953;BME280;12163;49.316;6.092;2023-02-16T03:54:00;100415.78;;;1.30;82.20
23953;BME280;12163;49.316;6.092;2023-02-16T03:56:26;100409.84;;;1.28;82.43
23953;BME280;12163;49.316;6.092;2023-02-16T03:58:53;100408.03;;;1.28;82.31
23953;BME280;12163;49.316;6.092;2023-02-16T04:01:19;100415.78;;;1.30;82.37
23953;BME280;12163;49.316;6.092;2023-02-16T04:03:46;100414.16;;;1.29;81.96
23953;BME280;12163;49.316;6.092;2023-02-16T04:06:13;100412.72;;;1.26;82.27
23953;BME280;12163;49.316;6.092;2023-02-16T04:08:40;100419.88;;;1.26;82.41
23953;BME280;12163;49.316;6.092;2023-02-16T04:11:06;100419.06;;;1.25;82.30
23953;BME280;12163;49.316;6.092;2023-02-16T04:13:53;100424.59;;;1.24;82.49
23953;BME280;12163;49.316;6.092;2023-02-16T04:16:19;100421.31;;;1.22;82.13
23953;BME280;12163;49.316;6.092;2023-02-16T04:18:46;100407.00;;;1.23;82.56
23953;BME280;12163;49.316;6.092;2023-02-16T04:21:13;100409.66;;;1.23;82.49
23953;BME280;12163;49.316;6.092;2023-02-16T04:23:39;100411.91;;;1.26;82.46
23953;BME280;12163;49.316;6.092;2023-02-16T04:26:06;100411.50;;;1.29;82.67
23953;BME280;12163;49.316;6.092;2023-02-16T04:28:32;100422.53;;;1.32;82.48
23953;BME280;12163;49.316;6.092;2023-02-16T04:30:59;100417.63;;;1.29;82.53
23953;BME280;12163;49.316;6.092;2023-02-16T04:33:26;100427.44;;;1.29;82.66
23953;BME280;12163;49.316;6.092;2023-02-16T04:35:52;100426.81;;;1.27;82.63
23953;BME280;12163;49.316;6.092;2023-02-16T04:38:19;100419.06;;;1.25;82.42
23953;BME280;12163;49.316;6.092;2023-02-16T04:40:45;100424.16;;;1.27;82.50
23953;BME280;12163;49.316;6.092;2023-02-16T04:43:12;100425.19;;;1.26;82.63
23953;BME280;12163;49.316;6.092;2023-02-16T04:45:39;100421.50;;;1.27;82.59
23953;BME280;12163;49.316;6.092;2023-02-16T04:48:05;100414.56;;;1.26;82.63
23953;BME280;12163;49.316;6.092;2023-02-16T04:50:32;100405.78;;;1.25;82.61
23953;BME280;12163;49.316;6.092;2023-02-16T04:52:58;100415.59;;;1.25;82.50
23953;BME280;12163;49.316;6.092;2023-02-16T04:55:25;100409.03;;;1.21;82.26
23953;BME280;12163;49.316;6.092;2023-02-16T04:57:51;100422.75;;;1.18;82.34
23953;BME280;12163;49.316;6.092;2023-02-16T05:00:18;100419.25;;;1.17;82.44
23953;BME280;12163;49.316;6.092;2023-02-16T05:02:45;100416.81;;;1.16;82.33
23953;BME280;12163;49.316;6.092;2023-02-16T05:05:12;100412.53;;;1.15;82.55
23953;BME280;12163;49.316;6.092;2023-02-16T05:07:38;100414.78;;;1.18;82.71
23953;BME280;12163;49.316;6.092;2023-02-16T05:10:05;100410.25;;;1.18;82.76
23953;BME280;12163;49.316;6.092;2023-02-16T05:12:32;100413.75;;;1.19;82.54
23953;BME280;12163;49.316;6.092;2023-02-16T05:15:17;100418.44;;;1.17;82.47
23953;BME280;12163;49.316;6.092;2023-02-16T05:17:44;100410.06;;;1.13;82.43
23953;BME280;12163;49.316;6.092;2023-02-16T05:20:11;100409.63;;;1.10;82.37
23953;BME280;12163;49.316;6.092;2023-02-16T05:22:38;100408.00;;;1.09;82.32
23953;BME280;12163;49.316;6.092;2023-02-16T05:25:07;100410.47;;;1.10;82.48
23953;BME280;12163;49.316;6.092;2023-02-16T05:27:33;100425.59;;;1.10;82.11
23953;BME280;12163;49.316;6.092;2023-02-16T05:30:00;100417.81;;;1.08;82.44
23953;BME280;12163;49.316;6.092;2023-02-16T05:32:27;100417.00;;;1.08;82.58
23953;BME280;12163;49.316;6.092;2023-02-16T05:34:54;100424.97;;;1.08;82.56
23953;BME280;12163;49.316;6.092;2023-02-16T05:37:20;100433.56;;;1.10;82.81
23953;BME280;12163;49.316;6.092;2023-02-16T05:39:47;100435.00;;;1.12;83.06
23953;BME280;12163;49.316;6.092;2023-02-16T05:42:14;100434.19;;;1.12;82.61
23953;BME280;12163;49.316;6.092;2023-02-16T05:44:40;100430.28;;;1.14;82.61
23953;BME280;12163;49.316;6.092;2023-02-16T05:47:07;100439.91;;;1.15;82.72
23953;BME280;12163;49.316;6.092;2023-02-16T05:49:33;100434.41;;;1.17;82.88
23953;BME280;12163;49.316;6.092;2023-02-16T05:52:00;100432.75;;;1.16;82.54
23953;BME280;12163;49.316;6.092;2023-02-16T05:54:27;100444.41;;;1.15;82.61
23953;BME280;12163;49.316;6.092;2023-02-16T05:56:54;100442.38;;;1.68;85.28
23953;BME280;12163;49.316;6.092;2023-02-16T05:59:21;100440.31;;;2.84;86.80
23953;BME280;12163;49.316;6.092;2023-02-16T06:01:47;100441.53;;;3.92;86.26
23953;BME280;12163;49.316;6.092;2023-02-16T06:04:18;100440.53;;;4.77;82.85
23953;BME280;12163;49.316;6.092;2023-02-16T06:06:45;100433.56;;;5.05;78.32
23953;BME280;12163;49.316;6.092;2023-02-16T06:09:12;100434.16;;;4.78;76.10
23953;BME280;12163;49.316;6.092;2023-02-16T06:11:38;100440.44;;;4.36;74.94
23953;BME280;12163;49.316;6.092;2023-02-16T06:14:16;100434.19;;;3.88;74.96
23953;BME280;12163;49.316;6.092;2023-02-16T06:16:45;100433.06;;;3.53;75.95
23953;BME280;12163;49.316;6.092;2023-02-16T06:19:13;100439.47;;;3.70;77.03
23953;BME280;12163;49.316;6.092;2023-02-16T06:21:40;100432.38;;;3.64;75.79
23953;BME280;12163;49.316;6.092;2023-02-16T06:24:09;100437.97;;;3.31;75.18
23953;BME280;12163;49.316;6.092;2023-02-16T06:26:36;100451.72;;;2.98;75.35
23953;BME280;12163;49.316;6.092;2023-02-16T06:29:05;100442.47;;;2.69;75.55
23953;BME280;12163;49.316;6.092;2023-02-16T06:31:32;100432.56;;;2.45;75.97
23953;BME280;12163;49.316;6.092;2023-02-16T06:34:02;100436.91;;;2.27;76.49
23953;BME280;12163;49.316;6.092;2023-02-16T06:36:29;100445.34;;;2.17;76.74
23953;BME280;12163;49.316;6.092;2023-02-16T06:38:56;100443.94;;;2.08;77.20
23953;BME280;12163;49.316;6.092;2023-02-16T06:41:23;100443.75;;;1.97;77.30
23953;BME280;12163;49.316;6.092;2023-02-16T06:44:11;100445.22;;;1.86;77.45
23953;BME280;12163;49.316;6.092;2023-02-16T06:46:40;100446.44;;;1.77;77.47
23953;BME280;12163;49.316;6.092;2023-02-16T06:49:11;100449.31;;;1.69;77.59
23953;BME280;12163;49.316;6.092;2023-02-16T06:51:38;100457.53;;;1.62;77.97
23953;BME280;12163;49.316;6.092;2023-02-16T06:54:05;100462.00;;;1.61;78.38
23953;BME280;12163;49.316;6.092;2023-02-16T06:56:32;100461.22;;;1.61;78.30
23953;BME280;12163;49.316;6.092;2023-02-16T06:58:59;100464.88;;;1.60;78.56
23953;BME280;12163;49.316;6.092;2023-02-16T07:01:25;100468.56;;;1.59;78.61
23953;BME280;12163;49.316;6.092;2023-02-16T07:03:53;100471.25;;;1.59;78.75
23953;BME280;12163;49.316;6.092;2023-02-16T07:06:21;100476.56;;;1.59;78.76
23953;BME280;12163;49.316;6.092;2023-02-16T07:08:48;100472.66;;;1.61;78.91
23953;BME280;12163;49.316;6.092;2023-02-16T07:11:15;100481.06;;;1.64;79.06
23953;BME280;12163;49.316;6.092;2023-02-16T07:13:42;100476.34;;;1.66;79.09
23953;BME280;12163;49.316;6.092;2023-02-16T07:16:09;100484.50;;;1.71;79.11
23953;BME280;12163;49.316;6.092;2023-02-16T07:18:36;100481.03;;;1.77;79.30
23953;BME280;12163;49.316;6.092;2023-02-16T07:21:03;100471.03;;;1.79;79.07
23953;BME280;12163;49.316;6.092;2023-02-16T07:23:31;100476.53;;;1.84;79.15
23953;BME280;12163;49.316;6.092;2023-02-16T07:25:57;100481.03;;;1.90;79.01
23953;BME280;12163;49.316;6.092;2023-02-16T07:28:24;100476.91;;;1.94;79.06
23953;BME280;12163;49.316;6.092;2023-02-16T07:30:51;100475.09;;;2.01;79.00
23953;BME280;12163;49.316;6.092;2023-02-16T07:33:17;100478.72;;;2.07;79.17
23953;BME280;12163;49.316;6.092;2023-02-16T07:35:45;100488.97;;;2.16;78.95
23953;BME280;12163;49.316;6.092;2023-02-16T07:38:12;100485.66;;;2.27;79.10
23953;BME280;12163;49.316;6.092;2023-02-16T07:40:38;100481.75;;;2.36;78.88
23953;BME280;12163;49.316;6.092;2023-02-16T07:43:05;100485.59;;;2.47;79.01
23953;BME280;12163;49.316;6.092;2023-02-16T07:45:32;100489.47;;;2.57;78.88
23953;BME280;12163;49.316;6.092;2023-02-16T07:48:00;100489.41;;;2.70;78.95
23953;BME280;12163;49.316;6.092;2023-02-16T07:50:27;100480.31;;;2.84;79.00
23953;BME280;12163;49.316;6.092;2023-02-16T07:52:53;100480.84;;;2.99;78.62
23953;BME280;12163;49.316;6.092;2023-02-16T07:55:20;100480.78;;;3.12;78.75
23953;BME280;12163;49.316;6.092;2023-02-16T07:57:46;100487.28;;;3.23;78.78
23953;BME280;12163;49.316;6.092;2023-02-16T08:00:15;100491.72;;;3.35;78.31
23953;BME280;12163;49.316;6.092;2023-02-16T08:02:41;100488.78;;;3.43;77.59
23953;BME280;12163;49.316;6.092;2023-02-16T08:05:08;100486.66;;;3.51;77.40
23953;BME280;12163;49.316;6.092;2023-02-16T08:07:35;100489.09;;;3.53;77.17
23953;BME280;12163;49.316;6.092;2023-02-16T08:10:01;100485.78;;;3.57;77.01
23953;BME280;12163;49.316;6.092;2023-02-16T08:12:28;100496.41;;;3.64;77.54
23953;BME280;12163;49.316;6.092;2023-02-16T08:14:55;100486.06;;;3.74;76.78
23953;BME280;12163;49.316;6.092;2023-02-16T08:17:21;100478.16;;;3.85;77.23
23953;BME280;12163;49.316;6.092;2023-02-16T08:19:48;100485.66;;;3.95;76.57
23953;BME280;12163;49.316;6.092;2023-02-16T08:22:16;100483.31;;;4.05;76.56
23953;BME280;12163;49.316;6.092;2023-02-16T08:24:43;100479.09;;;4.15;76.97
23953;BME280;12163;49.316;6.092;2023-02-16T08:27:10;100481.88;;;4.27;76.28
23953;BME280;12163;49.316;6.092;2023-02-16T08:29:36;100483.44;;;4.34;76.36
23953;BME280;12163;49.316;6.092;2023-02-16T08:32:03;100478.81;;;4.41;76.51
23953;BME280;12163;49.316;6.092;2023-02-16T08:34:33;100474.59;;;4.52;76.37
23953;BME280;12163;49.316;6.092;2023-02-16T08:37:00;100480.66;;;4.59;75.68
23953;BME280;12163;49.316;6.092;2023-02-16T08:39:29;100472.78;;;4.64;75.46
23953;BME280;12163;49.316;6.092;2023-02-16T08:41:57;100469.44;;;4.68;75.11
23953;BME280;12163;49.316;6.092;2023-02-16T08:44:25;100469.38;;;4.75;75.08
23953;BME280;12163;49.316;6.092;2023-02-16T08:46:54;100472.19;;;4.80;74.29
23953;BME280;12163;49.316;6.092;2023-02-16T08:49:22;100468.47;;;4.81;74.44
23953;BME280;12163;49.316;6.092;2023-02-16T08:51:51;100468.00;;;4.84;74.28
23953;BME280;12163;49.316;6.092;2023-02-16T08:54:23;100459.78;;;4.85;74.40
23953;BME280;12163;49.316;6.092;2023-02-16T08:56:52;100465.50;;;4.89;73.89
23953;BME280;12163;49.316;6.092;2023-02-16T08:59:20;100459.69;;;4.92;73.84
23953;BME280;12163;49.316;6.092;2023-02-16T09:01:48;100467.00;;;4.96;73.96
23953;BME280;12163;49.316;6.092;2023-02-16T09:04:16;100459.94;;;5.01;74.13
23953;BME280;12163;49.316;6.092;2023-02-16T09:06:44;100466.63;;;5.10;73.86
23953;BME280;12163;49.316;6.092;2023-02-16T09:09:12;100470.00;;;5.17;73.43
23953;BME280;12163;49.316;6.092;2023-02-16T09:11:39;100470.59;;;5.19;73.10
23953;BME280;12163;49.316;6.092;2023-02-16T09:14:06;100475.50;;;5.22;73.66
23953;BME280;12163;49.316;6.092;2023-02-16T09:16:35;100483.63;;;5.27;73.55
23953;BME280;12163;49.316;6.092;2023-02-16T09:19:05;100478.19;;;5.34;73.13
23953;BME280;12163;49.316;6.092;2023-02-16T09:21:32;100475.44;;;5.40;73.68
23953;BME280;12163;49.316;6.092;2023-02-16T09:24:01;100476.38;;;5.46;73.40
23953;BME280;12163;49.316;6.092;2023-02-16T09:26:34;100472.53;;;5.53;73.28
23953;BME280;12163;49.316;6.092;2023-02-16T09:29:02;100474.31;;;5.59;72.85
23953;BME280;12163;49.316;6.092;2023-02-16T09:31:31;100473.84;;;5.62;72.88
23953;BME280;12163;49.316;6.092;2023-02-16T09:34:19;100474.31;;;5.59;73.29
23953;BME280;12163;49.316;6.092;2023-02-16T09:36:47;100478.63;;;5.72;72.70
23953;BME280;12163;49.316;6.092;2023-02-16T09:39:14;100475.41;;;5.81;72.81
23953;BME280;12163;49.316;6.092;2023-02-16T09:42:03;100478.78;;;5.88;72.68
23953;BME280;12163;49.316;6.092;2023-02-16T09:47:30;100476.22;;;6.16;72.62
23953;BME280;12163;49.316;6.092;2023-02-16T09:50:05;100474.94;;;6.30;72.04
23953;BME280;12163;49.316;6.092;2023-02-16T09:52:41;100475.72;;;6.42;71.94
23953;BME280;12163;49.316;6.092;2023-02-16T09:55:15;100463.13;;;6.54;71.66
23953;BME280;12163;49.316;6.092;2023-02-16T09:58:06;100463.22;;;6.59;71.37
23953;BME280;12163;49.316;6.092;2023-02-16T10:00:54;100459.00;;;6.63;71.63
23953;BME280;12163;49.316;6.092;2023-02-16T10:03:59;100456.31;;;6.63;71.39
23953;BME280;12163;49.316;6.092;2023-02-16T10:09:25;100464.00;;;6.71;71.72
23953;BME280;12163;49.316;6.092;2023-02-16T10:12:18;100460.94;;;6.79;71.76
23953;BME280;12163;49.316;6.092;2023-02-16T10:14:49;100464.25;;;6.97;71.52
23953;BME280;12163;49.316;6.092;2023-02-16T10:17:31;100466.31;;;7.07;71.27
23953;BME280;12163;49.316;6.092;2023-02-16T10:20:12;100470.56;;;7.19;71.17
23953;BME280;12163;49.316;6.092;2023-02-16T10:22:52;100467.50;;;7.27;70.92
23953;BME280;12163;49.316;6.092;2023-02-16T10:25:40;100464.69;;;7.34;70.65
23953;BME280;12163;49.316;6.092;2023-02-16T10:28:16;100471.69;;;7.35;70.13
23953;BME280;12163;49.316;6.092;2023-02-16T10:31:10;100470.84;;;7.34;69.96
23953;BME280;12163;49.316;6.092;2023-02-16T10:33:45;100464.28;;;7.42;70.14
23953;BME280;12163;49.316;6.092;2023-02-16T10:39:02;100466.31;;;7.68;69.95
23953;BME280;12163;49.316;6.092;2023-02-16T10:41:39;100465.03;;;7.87;69.35
23953;BME280;12163;49.316;6.092;2023-02-16T10:44:32;100465.34;;;8.07;69.47
23953;BME280;12163;49.316;6.092;2023-02-16T10:47:02;100470.78;;;8.28;68.45
23953;BME280;12163;49.316;6.092;2023-02-16T10:49:31;100470.38;;;8.36;67.73
23953;BME280;12163;49.316;6.092;2023-02-16T10:52:01;100472.84;;;8.42;67.73
23953;BME280;12163;49.316;6.092;2023-02-16T10:54:30;100468.41;;;8.53;67.21
23953;BME280;12163;49.316;6.092;2023-02-16T10:57:02;100473.06;;;8.57;67.22
23953;BME280;12163;49.316;6.092;2023-02-16T11:01:58;100462.06;;;8.80;67.01
23953;BME280;12163;49.316;6.092;2023-02-16T11:04:48;100469.44;;;8.90;67.00
23953;BME280;12163;49.316;6.092;2023-02-16T11:07:23;100463.09;;;9.01;66.71
23953;BME280;12163;49.316;6.092;2023-02-16T11:09:52;100464.03;;;9.11;66.36
23953;BME280;12163;49.316;6.092;2023-02-16T11:12:31;100465.44;;;9.19;66.60
23953;BME280;12163;49.316;6.092;2023-02-16T11:17:51;100464.31;;;9.41;65.90
23953;BME280;12163;49.316;6.092;2023-02-16T11:23:21;100459.88;;;9.57;65.23
23953;BME280;12163;49.316;6.092;2023-02-16T11:28:28;100453.81;;;9.71;65.16
23953;BME280;12163;49.316;6.092;2023-02-16T11:34:02;100431.81;;;9.84;64.81
23953;BME280;12163;49.316;6.092;2023-02-16T11:36:40;100430.25;;;9.93;64.68
23953;BME280;12163;49.316;6.092;2023-02-16T11:39:16;100435.75;;;10.03;64.45
23953;BME280;12163;49.316;6.092;2023-02-16T11:41:48;100419.09;;;10.16;64.09
23953;BME280;12163;49.316;6.092;2023-02-16T11:46:53;100411.19;;;10.51;63.75
23953;BME280;12163;49.316;6.092;2023-02-16T11:52:17;100398.34;;;10.83;62.66
23953;BME280;12163;49.316;6.092;2023-02-16T11:55:03;100391.91;;;10.99;62.62
23953;BME280;12163;49.316;6.092;2023-02-16T11:57:33;100390.84;;;11.15;62.02
23953;BME280;12163;49.316;6.092;2023-02-16T12:00:13;100379.50;;;11.28;61.57
23953;BME280;12163;49.316;6.092;2023-02-16T12:05:30;100363.84;;;11.55;61.15
23953;BME280;12163;49.316;6.092;2023-02-16T12:11:08;100345.97;;;11.83;59.87
23953;BME280;12163;49.316;6.092;2023-02-16T12:22:05;100341.31;;;12.04;58.53
23953;BME280;12163;49.316;6.092;2023-02-16T12:33:36;100356.16;;;12.21;57.03
23953;BME280;12163;49.316;6.092;2023-02-16T12:36:27;100355.06;;;12.22;56.74
23953;BME280;12163;49.316;6.092;2023-02-16T12:42:53;100342.59;;;12.31;56.29
23953;BME280;12163;49.316;6.092;2023-02-16T12:45:21;100350.13;;;12.39;56.94
23953;BME280;12163;49.316;6.092;2023-02-16T12:47:53;100345.78;;;12.43;55.62
23953;BME280;12163;49.316;6.092;2023-02-16T12:50:23;100338.50;;;12.39;55.69
23953;BME280;12163;49.316;6.092;2023-02-16T12:55:49;100349.63;;;12.32;56.05
23953;BME280;12163;49.316;6.092;2023-02-16T12:58:28;100351.25;;;12.28;56.12
23953;BME280;12163;49.316;6.092;2023-02-16T13:01:12;100344.19;;;12.32;56.20
23953;BME280;12163;49.316;6.092;2023-02-16T13:04:02;100342.84;;;12.35;55.71
23953;BME280;12163;49.316;6.092;2023-02-16T13:06:41;100336.56;;;12.39;55.59
23953;BME280;12163;49.316;6.092;2023-02-16T13:09:25;100330.06;;;12.40;56.14
23953;BME280;12163;49.316;6.092;2023-02-16T13:11:57;100317.06;;;12.42;55.91
23953;BME280;12163;49.316;6.092;2023-02-16T13:14:31;100325.50;;;12.41;55.65
23953;BME280;12163;49.316;6.092;2023-02-16T13:17:02;100323.03;;;12.39;55.76
23953;BME280;12163;49.316;6.092;2023-02-16T13:19:30;100330.94;;;12.36;55.18
23953;BME280;12163;49.316;6.092;2023-02-16T13:25:34;100330.38;;;12.39;56.18
23953;BME280;12163;49.316;6.092;2023-02-16T13:47:17;100307.25;;;12.56;56.12
23953;BME280;12163;49.316;6.092;2023-02-16T13:49:45;100299.97;;;12.57;56.62
23953;BME280;12163;49.316;6.092;2023-02-16T13:52:35;100295.63;;;12.56;55.81
23953;BME280;12163;49.316;6.092;2023-02-16T13:55:07;100288.84;;;12.58;56.47
23953;BME280;12163;49.316;6.092;2023-02-16T14:02:52;100280.69;;;12.63;56.21
23953;BME280;12163;49.316;6.092;2023-02-16T14:05:24;100285.56;;;12.66;55.62
23953;BME280;12163;49.316;6.092;2023-02-16T14:08:26;100274.16;;;12.64;56.71
23953;BME280;12163;49.316;6.092;2023-02-16T14:13:27;100290.97;;;12.66;56.66
23953;BME280;12163;49.316;6.092;2023-02-16T14:15:56;100286.09;;;12.68;56.30
23953;BME280;12163;49.316;6.092;2023-02-16T14:18:31;100283.91;;;12.70;56.86
23953;BME280;12163;49.316;6.092;2023-02-16T14:21:05;100281.19;;;12.70;56.31
23953;BME280;12163;49.316;6.092;2023-02-16T14:23:33;100273.63;;;12.67;55.70
23953;BME280;12163;49.316;6.092;2023-02-16T14:26:05;100286.09;;;12.63;56.38
23953;BME280;12163;49.316;6.092;2023-02-16T14:31:10;100279.84;;;12.68;56.14
23953;BME280;12163;49.316;6.092;2023-02-16T14:33:44;100276.03;;;12.69;56.05
23953;BME280;12163;49.316;6.092;2023-02-16T14:36:16;100266.25;;;12.73;56.56
23953;BME280;12163;49.316;6.092;2023-02-16T14:38:54;100265.44;;;12.77;55.96
23953;BME280;12163;49.316;6.092;2023-02-16T14:41:34;100264.28;;;12.83;55.70
23953;BME280;12163;49.316;6.092;2023-02-16T14:46:44;100269.41;;;12.90;56.13
23953;BME280;12163;49.316;6.092;2023-02-16T14:55:07;100270.47;;;12.94;56.05
23953;BME280;12163;49.316;6.092;2023-02-16T14:57:55;100273.47;;;12.92;56.09
23953;BME280;12163;49.316;6.092;2023-02-16T15:00:27;100266.69;;;12.90;55.62
23953;BME280;12163;49.316;6.092;2023-02-16T15:03:01;100269.69;;;12.88;55.39
23953;BME280;12163;49.316;6.092;2023-02-16T15:05:33;100278.34;;;12.90;56.17
23953;BME280;12163;49.316;6.092;2023-02-16T15:10:37;100271.25;;;12.99;56.22
23953;BME280;12163;49.316;6.092;2023-02-16T15:13:04;100257.09;;;13.07;56.04
23953;BME280;12163;49.316;6.092;2023-02-16T15:18:13;100251.28;;;13.19;55.30
23953;BME280;12163;49.316;6.092;2023-02-16T15:20:44;100252.91;;;13.20;55.12
23953;BME280;12163;49.316;6.092;2023-02-16T15:23:18;100255.09;;;13.18;55.00
23953;BME280;12163;49.316;6.092;2023-02-16T15:28:31;100251.34;;;13.14;55.03
23953;BME280;12163;49.316;6.092;2023-02-16T15:31:02;100255.97;;;13.13;55.28
23953;BME280;12163;49.316;6.092;2023-02-16T15:33:32;100255.72;;;13.10;55.79